Time;durP1;ratioP1;P1;durP2;ratioP2;P2;SDS_P1;SDS_P2;PMS_P1;PMS_P2;Temp;Humidity;BMP_temperature;BMP_pressure;BME280_temperature;BME280_humidity;BME280_pressure;Samples;Min_cycle;Max_cycle;Signal;HPM_P1;HPM_P2
2022/04/29 00:01:36;;;;;;;6.97;6.53;;;12.40;43.00;;;;;;20676;6845;118658;-75
2022/04/29 00:04:02;;;;;;;7.68;7.25;;;12.40;43.30;;;;;;20512;6845;307295;-75
2022/04/29 00:06:28;;;;;;;7.00;6.60;;;12.50;43.10;;;;;;20717;6845;118502;-75
2022/04/29 00:08:53;;;;;;;7.07;6.67;;;12.40;43.30;;;;;;20508;6845;307771;-75
2022/04/29 00:11:21;;;;;;;7.10;6.50;;;12.60;42.90;;;;;;20701;6845;147515;-75
2022/04/29 00:13:45;;;;;;;6.90;6.50;;;12.50;43.10;;;;;;20714;6845;118985;-75
2022/04/29 00:16:11;;;;;;;7.53;7.10;;;12.30;43.50;;;;;;20513;6845;306011;-74
2022/04/29 00:18:37;;;;;;;7.57;6.97;;;12.40;42.90;;;;;;20509;6845;311482;-74
2022/04/29 00:21:02;;;;;;;6.90;6.50;;;12.70;42.20;;;;;;20711;6845;119424;-74
2022/04/29 00:23:27;;;;;;;7.10;6.53;;;12.60;42.50;;;;;;20693;6845;117699;-74
2022/04/29 00:25:53;;;;;;;8.27;7.63;;;12.30;43.10;;;;;;20500;6845;329946;-74
2022/04/29 00:28:19;;;;;;;7.93;7.37;;;12.40;42.90;;;;;;20501;6843;307413;-74
2022/04/29 00:30:44;;;;;;;8.03;7.53;;;12.60;42.20;;;;;;20720;6844;117548;-75
2022/04/29 00:33:10;;;;;;;7.60;7.00;;;12.50;42.50;;;;;;20721;6844;121908;-78
2022/04/29 00:35:37;;;;;;;7.90;7.40;;;12.20;43.10;;;;;;20493;6845;312109;-75
2022/04/29 00:38:03;;;;;;;7.10;6.70;;;12.20;43.00;;;;;;20723;6845;118770;-74
2022/04/29 00:40:28;;;;;;;7.10;6.60;;;12.20;43.00;;;;;;20729;6845;117570;-73
2022/04/29 00:42:54;;;;;;;8.18;7.78;;;12.00;43.50;;;;;;20490;6845;310489;-75
2022/04/29 00:45:20;;;;;;;7.70;7.20;;;12.40;42.60;;;;;;20483;6845;297301;-75
2022/04/29 00:47:47;;;;;;;6.27;5.90;;;12.40;42.60;;;;;;20714;6845;117429;-75
2022/04/29 00:50:13;;;;;;;6.87;6.43;;;12.30;42.90;;;;;;20713;6845;118393;-77
2022/04/29 00:52:43;;;;;;;7.03;6.57;;;12.00;43.50;;;;;;20699;6845;117286;-75
2022/04/29 00:55:10;;;;;;;5.93;5.63;;;11.80;44.10;;;;;;20707;6845;120395;-75
2022/04/29 00:57:49;;;;;;;7.07;6.47;;;11.60;44.60;;;;;;20689;6845;118686;-75
2022/04/29 01:00:15;;;;;;;7.70;7.20;;;11.70;43.90;;;;;;20511;6845;307668;-74
2022/04/29 01:02:41;;;;;;;7.30;6.90;;;11.70;43.80;;;;;;20508;6845;277444;-74
2022/04/29 01:05:06;;;;;;;7.30;6.80;;;12.10;43.30;;;;;;20487;6845;307793;-75
2022/04/29 01:07:32;;;;;;;6.90;6.50;;;12.40;42.70;;;;;;20465;6845;281820;-74
2022/04/29 01:09:57;;;;;;;6.53;6.23;;;12.60;43.00;;;;;;20706;6845;117989;-75
2022/04/29 01:12:26;;;;;;;6.67;6.27;;;12.40;43.20;;;;;;20498;6845;306998;-75
2022/04/29 01:14:56;;;;;;;7.43;6.90;;;12.40;42.90;;;;;;20495;6845;308184;-75
2022/04/29 01:17:22;;;;;;;6.77;6.33;;;12.60;42.10;;;;;;20689;6845;127180;-75
2022/04/29 01:19:49;;;;;;;6.97;6.47;;;12.00;43.20;;;;;;20718;6845;121424;-74
2022/04/29 01:22:15;;;;;;;6.62;6.22;;;12.10;43.00;;;;;;20506;6845;278430;-75
2022/04/29 01:24:41;;;;;;;7.10;6.70;;;12.00;42.90;;;;;;20508;6845;336645;-75
2022/04/29 01:27:10;;;;;;;6.97;6.57;;;12.30;43.20;;;;;;20502;6845;307418;-75
2022/04/29 01:29:36;;;;;;;5.83;5.53;;;12.30;42.60;;;;;;20699;6845;117663;-75
2022/04/29 01:32:02;;;;;;;6.97;6.57;;;12.30;42.60;;;;;;20500;6845;307150;-75
2022/04/29 01:34:30;;;;;;;6.65;6.22;;;12.10;42.40;;;;;;20697;6845;117230;-75
2022/04/29 01:36:55;;;;;;;6.70;6.10;;;12.10;42.40;;;;;;20718;6845;119705;-75
2022/04/29 01:39:21;;;;;;;7.10;6.70;;;11.80;43.10;;;;;;20483;6843;311807;-75
2022/04/29 01:41:46;;;;;;;7.07;6.67;;;11.90;43.10;;;;;;20721;6844;117732;-75
2022/04/29 01:44:12;;;;;;;7.37;6.87;;;11.90;43.10;;;;;;20501;6844;335226;-75
2022/04/29 01:46:39;;;;;;;7.00;6.60;;;11.80;43.00;;;;;;20720;6845;117690;-75
2022/04/29 01:49:05;;;;;;;7.03;6.60;;;11.70;43.30;;;;;;20509;6845;277439;-75
2022/04/29 01:51:31;;;;;;;7.60;7.10;;;12.10;42.70;;;;;;20466;6845;306906;-74
2022/04/29 01:53:57;;;;;;;7.20;6.80;;;12.00;42.60;;;;;;20507;6845;277349;-75
2022/04/29 01:56:32;;;;;;;6.93;6.53;;;12.30;41.50;;;;;;20502;6845;311603;-75
2022/04/29 01:58:49;;;;;;;7.03;6.43;;;12.40;41.60;;;;;;20688;6845;117605;-76
2022/04/29 02:01:14;;;;;;;7.25;6.85;;;12.10;42.20;;;;;;20500;6845;311210;-76
2022/04/29 02:03:40;;;;;;;6.47;6.07;;;12.00;41.80;;;;;;20700;6845;118273;-75
2022/04/29 02:06:05;;;;;;;6.62;6.22;;;11.80;42.40;;;;;;20716;6845;117819;-75
2022/04/29 02:08:31;;;;;;;6.80;6.30;;;11.50;43.20;;;;;;20719;6845;118896;-77
2022/04/29 02:10:57;;;;;;;7.45;7.00;;;11.40;43.50;;;;;;20505;6845;307417;-81
2022/04/29 02:13:24;;;;;;;7.03;6.57;;;11.40;43.50;;;;;;20695;6845;128509;-74
2022/04/29 02:15:50;;;;;;;7.40;6.80;;;11.30;43.60;;;;;;20714;6845;117643;-78
2022/04/29 02:18:16;;;;;;;7.10;6.60;;;11.10;44.10;;;;;;20717;6845;117161;-75
2022/04/29 02:20:41;;;;;;;8.03;7.50;;;10.90;44.60;;;;;;20501;6845;306845;-79
2022/04/29 02:23:06;;;;;;;7.13;6.63;;;11.00;44.00;;;;;;20722;6845;117889;-76
2022/04/29 02:25:32;;;;;;;10.30;9.60;;;11.20;43.80;;;;;;20487;6845;307317;-84
2022/04/29 02:27:58;;;;;;;10.05;9.45;;;11.20;43.80;;;;;;20502;6845;277947;-79
2022/04/29 02:30:24;;;;;;;9.03;8.43;;;11.50;43.20;;;;;;20505;6845;305106;-76
2022/04/29 02:32:49;;;;;;;8.23;7.60;;;11.70;42.60;;;;;;20719;6845;121286;-77
2022/04/29 02:35:17;;;;;;;8.50;8.00;;;11.50;42.90;;;;;;20505;6845;277711;-77
2022/04/29 02:37:43;;;;;;;8.03;7.63;;;11.50;42.90;;;;;;20505;6845;306764;-75
2022/04/29 02:40:09;;;;;;;7.77;7.33;;;11.90;42.50;;;;;;20503;6845;297556;-75
2022/04/29 02:42:35;;;;;;;7.90;7.40;;;11.90;42.50;;;;;;20500;6845;306056;-75
2022/04/29 02:45:00;;;;;;;8.07;7.57;;;12.00;42.50;;;;;;20508;6845;307819;-75
2022/04/29 02:47:27;;;;;;;7.67;7.27;;;12.10;41.90;;;;;;20489;6845;306963;-75
2022/04/29 02:49:53;;;;;;;7.67;7.17;;;12.20;41.90;;;;;;20715;6845;117469;-75
2022/04/29 02:52:17;;;;;;;7.30;6.90;;;12.00;42.60;;;;;;20511;6843;285862;-75
2022/04/29 02:54:44;;;;;;;7.93;7.53;;;11.80;42.50;;;;;;20514;6844;287066;-75
2022/04/29 02:57:09;;;;;;;7.30;6.80;;;12.00;42.40;;;;;;20721;6845;117179;-75
2022/04/29 02:59:35;;;;;;;7.00;6.60;;;11.70;42.70;;;;;;20698;6845;118560;-75
2022/04/29 03:02:01;;;;;;;6.60;6.20;;;11.40;43.60;;;;;;20717;6845;117886;-75
2022/04/29 03:04:26;;;;;;;6.50;6.10;;;11.10;44.20;;;;;;20720;6845;117719;-75
2022/04/29 03:06:53;;;;;;;7.87;7.37;;;11.10;44.00;;;;;;20507;6845;307309;-75
2022/04/29 03:09:20;;;;;;;9.48;8.77;;;11.00;43.90;;;;;;20488;6845;307235;-75
2022/04/29 03:11:43;;;;;;;7.70;7.20;;;11.40;43.30;;;;;;20493;6845;299482;-75
2022/04/29 03:14:09;;;;;;;7.70;7.28;;;11.70;43.10;;;;;;20507;6845;306446;-75
2022/04/29 03:16:35;;;;;;;8.43;7.72;;;11.80;42.50;;;;;;20506;6845;306240;-75
2022/04/29 03:19:01;;;;;;;10.63;9.93;;;11.90;42.50;;;;;;20513;6845;302180;-75
2022/04/29 03:21:26;;;;;;;10.27;9.67;;;11.90;42.00;;;;;;20487;6845;310852;-75
2022/04/29 03:23:52;;;;;;;7.62;7.12;;;11.90;42.00;;;;;;20506;6845;307243;-75
2022/04/29 03:26:19;;;;;;;7.97;7.37;;;12.00;41.80;;;;;;20492;6845;307882;-76
2022/04/29 03:28:45;;;;;;;7.90;7.30;;;11.60;43.20;;;;;;20735;6845;73078;-72
2022/04/29 03:31:11;;;;;;;6.93;6.53;;;11.50;42.50;;;;;;20723;6845;118091;-74
2022/04/29 03:33:36;;;;;;;8.02;7.53;;;11.10;43.40;;;;;;20490;6845;307447;-74
2022/04/29 03:36:02;;;;;;;7.67;7.27;;;11.20;43.60;;;;;;20508;6845;307752;-75
2022/04/29 03:38:29;;;;;;;7.43;7.03;;;11.40;43.10;;;;;;20712;6845;117787;-74
2022/04/29 03:40:54;;;;;;;8.25;7.55;;;11.20;43.30;;;;;;20504;6845;348276;-74
2022/04/29 03:43:20;;;;;;;8.00;7.50;;;11.20;44.20;;;;;;20494;6845;307671;-72
2022/04/29 03:45:47;;;;;;;7.20;6.70;;;11.40;43.50;;;;;;20723;6845;118987;-72
2022/04/29 03:48:12;;;;;;;7.60;7.10;;;11.20;43.60;;;;;;20730;6845;117710;-72
2022/04/29 03:50:38;;;;;;;7.13;6.70;;;10.80;44.20;;;;;;20710;6845;118088;-72
2022/04/29 03:53:03;;;;;;;7.43;6.93;;;10.50;44.90;;;;;;20716;6845;118333;-72
2022/04/29 03:55:29;;;;;;;8.00;7.43;;;10.30;45.40;;;;;;20486;6845;307806;-74
2022/04/29 03:57:55;;;;;;;8.00;7.50;;;10.50;44.90;;;;;;20496;6845;306498;-73
2022/04/29 04:00:20;;;;;;;6.70;6.20;;;10.90;44.80;;;;;;20690;6845;117273;-73
2022/04/29 04:02:46;;;;;;;7.60;7.03;;;10.80;45.00;;;;;;20725;6843;117456;-73
2022/04/29 04:05:11;;;;;;;7.77;7.20;;;10.60;45.50;;;;;;20522;6844;312695;-72
2022/04/29 04:07:37;;;;;;;7.30;6.80;;;10.70;45.30;;;;;;20704;6844;121094;-73
2022/04/29 04:10:02;;;;;;;11.37;8.00;;;10.60;45.30;;;;;;20726;6845;118279;-73
2022/04/29 04:12:46;;;;;;;7.60;7.20;;;10.50;45.80;;;;;;20725;6845;117886;-73
2022/04/29 04:15:10;;;;;;;7.93;7.53;;;10.30;46.10;;;;;;20514;6845;307754;-73
2022/04/29 04:17:37;;;;;;;8.03;7.53;;;10.40;45.20;;;;;;20694;6845;117732;-75
2022/04/29 04:20:03;;;;;;;7.70;7.20;;;10.40;45.40;;;;;;20719;6845;117170;-74
2022/04/29 04:22:28;;;;;;;6.60;6.20;;;10.20;45.90;;;;;;20713;6845;121069;-71
2022/04/29 04:24:55;;;;;;;7.90;7.10;;;9.90;47.80;;;;;;20723;6845;117709;-73
2022/04/29 04:27:20;;;;;;;6.47;6.17;;;9.90;47.80;;;;;;20655;6845;119387;-72
2022/04/29 04:29:46;;;;;;;6.87;6.47;;;9.90;48.20;;;;;;20719;6845;117113;-74
2022/04/29 04:32:11;;;;;;;7.70;7.20;;;9.80;48.30;;;;;;20489;6845;297295;-73
2022/04/29 04:34:50;;;;;;;8.03;7.43;;;10.20;47.20;;;;;;20509;6845;276976;-73
2022/04/29 04:37:17;;;;;;;8.03;7.43;;;10.60;46.10;;;;;;20722;6845;117778;-74
2022/04/29 04:39:41;;;;;;;7.87;7.27;;;10.70;46.10;;;;;;20679;6845;121781;-74
2022/04/29 04:42:07;;;;;;;7.53;7.03;;;10.50;46.50;;;;;;20705;6845;117581;-74
2022/04/29 04:44:32;;;;;;;8.50;7.90;;;10.40;46.90;;;;;;20504;6845;306961;-75
2022/04/29 04:46:58;;;;;;;8.37;7.73;;;10.70;45.80;;;;;;20497;6845;296711;-75
2022/04/29 04:49:24;;;;;;;7.17;6.70;;;11.10;45.00;;;;;;20695;6845;117749;-74
2022/04/29 04:51:50;;;;;;;7.37;6.70;;;10.90;45.70;;;;;;20711;6845;118990;-74
2022/04/29 04:54:15;;;;;;;7.43;6.93;;;10.90;45.70;;;;;;20709;6845;117197;-74
2022/04/29 04:56:41;;;;;;;7.00;6.60;;;10.80;46.10;;;;;;20500;6845;277962;-74
2022/04/29 04:59:07;;;;;;;115.27;59.80;;;11.00;45.80;;;;;;20721;6845;118373;-75
2022/04/29 05:01:32;;;;;;;27.43;22.10;;;11.00;45.90;;;;;;20419;6860;337410;-74
2022/04/29 05:03:59;;;;;;;11.90;10.95;;;11.30;45.40;;;;;;20499;6845;341291;-74
2022/04/29 05:06:25;;;;;;;9.77;9.17;;;12.00;43.60;;;;;;20514;6841;308161;-74
2022/04/29 05:08:51;;;;;;;7.67;7.17;;;12.00;43.60;;;;;;20724;6841;119695;-74
2022/04/29 05:11:16;;;;;;;7.82;7.40;;;11.90;44.10;;;;;;20503;6845;308011;-77
2022/04/29 05:13:43;;;;;;;7.00;6.60;;;11.90;45.70;;;;;;20577;6844;117954;-75
2022/04/29 05:16:08;;;;;;;7.67;7.07;;;11.90;45.20;;;;;;20725;6844;122189;-76
2022/04/29 05:18:34;;;;;;;7.20;6.70;;;11.70;45.70;;;;;;20721;6845;117429;-73
2022/04/29 05:21:02;;;;;;;7.37;6.97;;;11.50;46.10;;;;;;20515;6841;332007;-71
2022/04/29 05:23:28;;;;;;;7.37;6.87;;;11.70;45.90;;;;;;20713;6841;118680;-72
2022/04/29 05:25:54;;;;;;;6.77;6.37;;;11.70;45.90;;;;;;20511;6845;329337;-71
2022/04/29 05:28:19;;;;;;;6.70;6.23;;;11.90;45.20;;;;;;20723;6845;118632;-72
2022/04/29 05:30:45;;;;;;;6.53;6.13;;;12.00;45.50;;;;;;20721;6845;117541;-74
2022/04/29 05:33:10;;;;;;;6.25;5.82;;;11.90;45.90;;;;;;20725;6845;117540;-74
2022/04/29 05:35:36;;;;;;;6.80;6.30;;;11.80;46.20;;;;;;20655;6860;118688;-71
2022/04/29 05:38:03;;;;;;;6.97;6.57;;;11.90;45.70;;;;;;20513;6841;310219;-73
2022/04/29 05:43:15;;;;;;;6.95;6.50;;;12.70;44.30;;;;;;20527;6841;306811;-72
2022/04/29 05:45:41;;;;;;;6.60;6.20;;;12.60;44.30;;;;;;20715;6841;118788;-70
2022/04/29 05:48:06;;;;;;;6.53;6.20;;;12.50;44.60;;;;;;20733;6841;117605;-74
2022/04/29 05:50:33;;;;;;;7.47;6.97;;;12.40;44.90;;;;;;20510;6841;335107;-70
2022/04/29 05:52:58;;;;;;;6.67;6.27;;;12.40;44.90;;;;;;20520;6841;310274;-71
2022/04/29 05:55:24;;;;;;;7.35;6.93;;;12.70;44.70;;;;;;20508;6841;310975;-71
2022/04/29 05:57:49;;;;;;;6.33;5.93;;;12.90;44.40;;;;;;20715;6845;118362;-69
2022/04/29 06:00:15;;;;;;;6.62;6.20;;;12.80;44.80;;;;;;20677;6860;117720;-70
2022/04/29 06:02:44;;;;;;;5.53;5.07;;;12.50;45.30;;;;;;20730;6841;117126;-68
2022/04/29 06:05:10;;;;;;;6.10;5.80;;;12.40;46.30;;;;;;20518;6841;336232;-68
2022/04/29 06:07:35;;;;;;;5.73;5.20;;;12.70;45.60;;;;;;20698;6845;117396;-70
2022/04/29 06:10:01;;;;;;;5.80;5.40;;;13.10;46.00;;;;;;20510;6845;282133;-71
2022/04/29 06:12:27;;;;;;;4.70;4.50;;;13.10;45.30;;;;;;20530;6830;307943;-70
2022/04/29 06:14:53;;;;;;;4.78;4.57;;;14.20;44.70;;;;;;20537;6830;337039;-70
2022/04/29 06:17:21;;;;;;;4.40;4.20;;;14.10;43.90;;;;;;20674;6856;118936;-70
2022/04/29 06:19:45;;;;;;;4.10;3.90;;;14.60;44.60;;;;;;20678;6856;117519;-73
2022/04/29 06:22:11;;;;;;;4.73;4.47;;;14.60;44.60;;;;;;20672;6861;118601;-70
2022/04/29 06:24:37;;;;;;;5.28;4.97;;;14.80;44.80;;;;;;20512;6845;308795;-69
2022/04/29 06:27:03;;;;;;;4.72;4.50;;;15.10;42.30;;;;;;20529;6839;306635;-74
2022/04/29 06:29:29;;;;;;;4.63;4.43;;;15.70;41.80;;;;;;20494;6840;307443;-69
2022/04/29 06:31:54;;;;;;;4.17;3.97;;;16.10;41.10;;;;;;20736;6841;117202;-70
2022/04/29 06:34:20;;;;;;;4.70;4.47;;;16.30;41.80;;;;;;20514;6841;331293;-70
2022/04/29 06:36:46;;;;;;;5.07;4.73;;;16.60;41.10;;;;;;20736;6841;117074;-70
2022/04/29 06:39:12;;;;;;;4.97;4.57;;;16.60;41.10;;;;;;20737;6841;117051;-72
2022/04/29 06:41:37;;;;;;;5.87;5.47;;;16.50;41.50;;;;;;20506;6841;277493;-70
2022/04/29 06:44:03;;;;;;;5.13;4.83;;;16.70;39.40;;;;;;20736;6841;117160;-70
2022/04/29 06:46:29;;;;;;;5.13;4.83;;;16.70;40.10;;;;;;20519;6841;307000;-70
2022/04/29 06:48:55;;;;;;;4.30;3.90;;;16.90;39.10;;;;;;20731;6841;117565;-70
2022/04/29 06:51:20;;;;;;;3.97;3.78;;;17.00;39.90;;;;;;20655;6860;128593;-71
2022/04/29 06:53:46;;;;;;;4.60;4.25;;;17.00;41.00;;;;;;20728;6841;117773;-70
2022/04/29 06:56:13;;;;;;;5.00;4.68;;;17.00;41.00;;;;;;20519;6841;336370;-70
2022/04/29 06:58:41;;;;;;;4.55;4.25;;;17.90;39.10;;;;;;20522;6841;328312;-70
2022/04/29 07:01:07;;;;;;;3.97;3.77;;;18.10;39.20;;;;;;20674;6860;117556;-70
2022/04/29 07:03:32;;;;;;;5.93;5.43;;;18.00;39.00;;;;;;20502;6841;277024;-70
2022/04/29 07:06:00;;;;;;;5.10;4.70;;;18.30;37.90;;;;;;20530;6841;277515;-70
2022/04/29 07:08:23;;;;;;;4.40;4.10;;;18.70;37.40;;;;;;20730;6841;117962;-70
2022/04/29 07:10:49;;;;;;;5.45;5.05;;;18.90;38.20;;;;;;20524;6841;277399;-70
2022/04/29 07:13:15;;;;;;;4.37;4.07;;;19.10;37.20;;;;;;20510;6841;336808;-69
2022/04/29 07:15:43;;;;;;;3.93;3.73;;;19.80;35.80;;;;;;20428;6860;278975;-70
2022/04/29 07:18:07;;;;;;;4.93;4.53;;;19.80;35.80;;;;;;20515;6841;281522;-70
2022/04/29 07:20:32;;;;;;;4.63;4.33;;;20.00;35.40;;;;;;20522;6841;282176;-70
2022/04/29 07:22:58;;;;;;;5.20;4.90;;;20.20;35.30;;;;;;20518;6841;341216;-70
2022/04/29 07:25:24;;;;;;;4.87;4.57;;;20.50;35.50;;;;;;20499;6841;306304;-71
2022/04/29 07:27:50;;;;;;;4.10;3.80;;;20.50;34.70;;;;;;20712;6841;117194;-70
2022/04/29 07:30:15;;;;;;;5.50;5.20;;;20.40;35.80;;;;;;20725;6841;117137;-71
2022/04/29 07:32:41;;;;;;;5.13;4.83;;;20.10;36.70;;;;;;20513;6841;306612;-71
2022/04/29 07:43:26;;;;;;;6.03;5.73;;;20.80;35.30;;;;;;20702;6841;117521;-70
2022/04/29 07:45:51;;;;;;;5.27;4.97;;;20.80;35.30;;;;;;20523;6841;281428;-71
2022/04/29 07:48:18;;;;;;;6.22;5.87;;;20.80;33.50;;;;;;20736;6841;117132;-75
2022/04/29 07:50:44;;;;;;;7.23;6.73;;;20.70;34.60;;;;;;20732;6841;117458;-71
2022/04/29 07:53:09;;;;;;;4.23;3.93;;;20.50;35.20;;;;;;20729;6841;116997;-71
2022/04/29 07:55:35;;;;;;;6.35;5.75;;;20.20;35.90;;;;;;20507;6841;296160;-70
2022/04/29 07:58:00;;;;;;;5.23;4.87;;;20.40;33.90;;;;;;20731;6841;121064;-72
2022/04/29 08:00:27;;;;;;;6.20;5.75;;;20.40;35.00;;;;;;20514;6841;281752;-71
2022/04/29 08:02:54;;;;;;;6.68;6.18;;;20.70;34.30;;;;;;20511;6841;336561;-72
2022/04/29 08:05:19;;;;;;;5.47;5.10;;;21.10;32.80;;;;;;20712;6841;117643;-73
2022/04/29 08:07:44;;;;;;;5.40;5.00;;;21.20;33.80;;;;;;20509;6830;307420;-71
2022/04/29 08:10:10;;;;;;;6.28;5.90;;;21.40;32.90;;;;;;20711;6845;118360;-71
2022/04/29 08:12:38;;;;;;;5.93;5.53;;;21.30;34.00;;;;;;20571;6826;280733;-73
2022/04/29 08:15:04;;;;;;;6.00;5.70;;;21.50;31.90;;;;;;20562;6826;311683;-72
2022/04/29 08:17:29;;;;;;;5.90;5.40;;;21.70;31.30;;;;;;20755;6826;141144;-72
2022/04/29 08:19:55;;;;;;;7.40;6.90;;;21.60;32.50;;;;;;20782;6826;119238;-70
2022/04/29 08:22:21;;;;;;;7.15;6.62;;;21.40;32.80;;;;;;20527;6830;307019;-72
2022/04/29 08:24:46;;;;;;;5.80;5.30;;;21.40;29.60;;;;;;20704;6849;117147;-71
2022/04/29 08:27:13;;;;;;;7.30;6.80;;;21.30;31.30;;;;;;20519;6844;278393;-71
2022/04/29 08:29:37;;;;;;;5.30;4.95;;;21.40;30.00;;;;;;20659;6860;119076;-70
2022/04/29 08:32:04;;;;;;;6.27;5.60;;;21.30;31.50;;;;;;20730;6841;118023;-68
2022/04/29 08:34:30;;;;;;;5.97;5.63;;;21.10;31.90;;;;;;20724;6841;117538;-68
2022/04/29 08:36:55;;;;;;;6.85;6.35;;;20.90;32.40;;;;;;20513;6841;307566;-70
2022/04/29 08:39:22;;;;;;;8.37;7.73;;;21.20;30.40;;;;;;20505;6841;278536;-71
2022/04/29 08:41:47;;;;;;;5.40;4.90;;;21.20;30.40;;;;;;20731;6841;121362;-71
2022/04/29 08:44:13;;;;;;;7.80;7.20;;;21.10;31.70;;;;;;20503;6845;308860;-71
2022/04/29 08:46:40;;;;;;;6.47;6.07;;;21.10;31.20;;;;;;20503;6845;308571;-71
2022/04/29 08:49:05;;;;;;;6.30;5.90;;;21.20;30.50;;;;;;20730;6843;118253;-71
2022/04/29 08:51:31;;;;;;;6.20;5.80;;;20.90;31.30;;;;;;20698;6844;117631;-71
2022/04/29 08:53:57;;;;;;;6.43;6.03;;;20.60;32.20;;;;;;20717;6844;118956;-71
2022/04/29 08:59:10;;;;;;;6.53;6.18;;;20.20;34.00;;;;;;20510;6845;279192;-70
2022/04/29 09:01:34;;;;;;;6.73;6.23;;;20.60;31.20;;;;;;20444;6845;338256;-71
2022/04/29 09:03:59;;;;;;;6.30;5.70;;;21.00;31.10;;;;;;20709;6845;117734;-72
2022/04/29 09:06:25;;;;;;;6.78;6.25;;;21.20;32.00;;;;;;20483;6848;280200;-71
2022/04/29 09:08:50;;;;;;;4.87;4.50;;;21.30;29.80;;;;;;20704;6850;121605;-71
2022/04/29 09:11:23;;;;;;;5.20;4.90;;;21.40;30.80;;;;;;20532;6841;307400;-71
2022/04/29 09:13:48;;;;;;;4.97;4.63;;;21.60;29.40;;;;;;20673;6856;117487;-71
2022/04/29 09:16:14;;;;;;;5.57;5.10;;;21.60;29.90;;;;;;20526;6826;307873;-70
2022/04/29 09:18:42;;;;;;;4.97;4.67;;;21.80;28.60;;;;;;20773;6826;117112;-71
2022/04/29 09:21:18;;;;;;;5.18;4.87;;;21.80;29.80;;;;;;20544;6826;310944;-70
2022/04/29 09:23:55;;;;;;;5.33;4.93;;;22.30;28.90;;;;;;20569;6826;299170;-70
2022/04/29 09:26:24;;;;;;;5.37;5.00;;;22.30;28.90;;;;;;20553;6826;306562;-71
2022/04/29 09:28:50;;;;;;;5.70;5.30;;;22.70;28.90;;;;;;20769;6829;117174;-73
2022/04/29 09:31:15;;;;;;;5.87;5.57;;;22.70;29.20;;;;;;20767;6829;119865;-73
2022/04/29 09:33:41;;;;;;;5.87;5.37;;;22.40;29.50;;;;;;20757;6829;121111;-72
2022/04/29 09:36:06;;;;;;;6.03;5.53;;;22.30;29.80;;;;;;20518;6829;278779;-72
2022/04/29 09:41:23;;;;;;;5.22;4.93;;;22.70;29.60;;;;;;20553;6826;336097;-72
2022/04/29 09:43:48;;;;;;;5.10;4.80;;;22.70;29.20;;;;;;20560;6826;306988;-72
2022/04/29 09:46:16;;;;;;;4.55;4.15;;;23.00;29.40;;;;;;20563;6826;282850;-72
2022/04/29 09:48:53;;;;;;;4.47;4.13;;;23.30;28.80;;;;;;20736;6826;117103;-72
2022/04/29 09:51:38;;;;;;;4.07;3.77;;;23.40;28.30;;;;;;20541;6829;277901;-76
2022/04/29 09:54:17;;;;;;;3.50;3.30;;;23.40;26.20;;;;;;20743;6829;119646;-74
2022/04/29 09:56:46;;;;;;;3.47;3.27;;;23.00;27.70;;;;;;20756;6829;121004;-74
2022/04/29 09:59:12;;;;;;;4.20;3.80;;;22.90;27.50;;;;;;20707;6829;117120;-73
2022/04/29 10:01:37;;;;;;;4.17;3.80;;;22.80;27.60;;;;;;20541;6827;340914;-74
2022/04/29 10:04:03;;;;;;;4.23;3.20;;;22.90;26.40;;;;;;20775;6828;118374;-74
2022/04/29 10:06:29;;;;;;;4.10;3.78;;;23.00;27.40;;;;;;20523;6841;311408;-73
2022/04/29 10:08:54;;;;;;;4.20;3.80;;;23.20;25.20;;;;;;20545;6830;278866;-73
2022/04/29 10:11:21;;;;;;;4.15;3.85;;;23.40;24.70;;;;;;20533;6826;340199;-73
2022/04/29 10:13:45;;;;;;;4.27;3.87;;;23.50;24.20;;;;;;20777;6826;121092;-73
2022/04/29 10:16:12;;;;;;;5.43;4.93;;;22.90;25.40;;;;;;20743;6828;124701;-74
2022/04/29 10:21:23;;;;;;;3.50;3.20;;;22.60;25.60;;;;;;20734;6828;123090;-73
2022/04/29 10:23:48;;;;;;;3.85;3.65;;;22.20;25.80;;;;;;20720;6845;117385;-73
2022/04/29 10:26:17;;;;;;;3.80;3.50;;;21.90;25.80;;;;;;20785;6826;117591;-73
2022/04/29 10:28:43;;;;;;;3.70;3.50;;;21.50;26.20;;;;;;20768;6826;117017;-73
2022/04/29 10:31:09;;;;;;;3.73;3.43;;;21.40;26.10;;;;;;20785;6826;117572;-73
2022/04/29 10:33:36;;;;;;;4.10;3.80;;;21.30;26.70;;;;;;20733;6826;119743;-73
2022/04/29 10:36:07;;;;;;;3.80;3.60;;;21.20;26.60;;;;;;20776;6826;117332;-73
2022/04/29 10:38:34;;;;;;;3.60;3.40;;;21.30;26.70;;;;;;20557;6826;320551;-73
2022/04/29 10:41:15;;;;;;;3.40;3.20;;;21.60;25.00;;;;;;20751;6826;118407;-73
2022/04/29 10:43:49;;;;;;;3.80;3.60;;;21.80;26.20;;;;;;20748;6829;117500;-72
2022/04/29 10:46:25;;;;;;;3.72;3.50;;;21.80;26.30;;;;;;20558;6829;336438;-73
2022/04/29 10:48:52;;;;;;;3.47;3.27;;;22.00;24.60;;;;;;20719;6845;117187;-73
2022/04/29 10:51:20;;;;;;;3.83;3.58;;;22.10;26.00;;;;;;20529;6826;340024;-74
2022/04/29 10:53:45;;;;;;;3.50;3.30;;;22.30;24.90;;;;;;20448;6826;117248;-73
2022/04/29 10:56:31;;;;;;;4.40;3.90;;;22.40;25.50;;;;;;20761;6829;117592;-72
2022/04/29 10:59:03;;;;;;;3.87;3.67;;;22.30;25.70;;;;;;20784;6829;70947;-75
2022/04/29 11:01:33;;;;;;;3.90;3.70;;;22.20;26.00;;;;;;20553;6829;335976;-72
2022/04/29 11:03:54;;;;;;;4.13;3.83;;;22.30;24.10;;;;;;20542;6829;278105;-74
2022/04/29 11:06:20;;;;;;;5.15;4.80;;;22.60;24.40;;;;;;20507;6838;308501;-74
2022/04/29 11:08:49;;;;;;;4.23;3.83;;;22.60;25.30;;;;;;20731;6830;117759;-75
2022/04/29 11:11:13;;;;;;;4.30;4.00;;;22.60;24.70;;;;;;20758;6824;117133;-75
2022/04/29 11:13:44;;;;;;;4.15;3.85;;;22.20;25.90;;;;;;20751;6825;118799;-75
2022/04/29 11:16:10;;;;;;;4.17;3.97;;;22.10;25.80;;;;;;20566;6826;299169;-75
2022/04/29 11:18:37;;;;;;;4.00;3.70;;;22.30;24.50;;;;;;20556;6826;293410;-73
2022/04/29 11:26:47;;;;;;;4.70;4.40;;;23.00;25.20;;;;;;20770;6828;117744;-75
2022/04/29 11:29:12;;;;;;;4.30;4.00;;;22.90;25.60;;;;;;20774;6826;117004;-75
2022/04/29 11:31:38;;;;;;;4.37;4.13;;;22.80;26.20;;;;;;20548;6826;307111;-77
2022/04/29 11:34:07;;;;;;;4.50;4.10;;;22.80;25.40;;;;;;20774;6826;123815;-74
2022/04/29 11:36:33;;;;;;;4.65;4.30;;;22.80;25.40;;;;;;20567;6826;278353;-74
2022/04/29 11:38:58;;;;;;;4.03;3.80;;;22.80;24.80;;;;;;20783;6826;117835;-74
2022/04/29 11:41:27;;;;;;;4.50;4.20;;;22.90;25.70;;;;;;20543;6826;325254;-77
2022/04/29 11:43:49;;;;;;;4.00;3.80;;;23.00;24.00;;;;;;20768;6826;117695;-75
2022/04/29 11:46:15;;;;;;;4.10;3.90;;;23.00;25.50;;;;;;20765;6826;117175;-74
2022/04/29 11:48:53;;;;;;;4.70;4.40;;;23.00;26.20;;;;;;20557;6826;297438;-73
2022/04/29 11:51:19;;;;;;;4.93;4.57;;;23.10;25.40;;;;;;20742;6826;121510;-73
2022/04/29 11:54:05;;;;;;;5.10;4.70;;;23.30;24.80;;;;;;20564;6826;311752;-73
2022/04/29 11:56:35;;;;;;;5.00;4.80;;;23.30;25.70;;;;;;20777;6826;117093;-76
2022/04/29 11:59:00;;;;;;;4.60;4.40;;;23.30;25.60;;;;;;20560;6826;307240;-73
2022/04/29 12:01:28;;;;;;;5.17;4.80;;;23.60;24.10;;;;;;20530;6826;307015;-75
2022/04/29 12:03:53;;;;;;;5.33;5.03;;;23.60;24.10;;;;;;20776;6826;120988;-72
2022/04/29 12:06:20;;;;;;;5.25;4.85;;;23.60;24.20;;;;;;20568;6826;307418;-73
2022/04/29 12:08:45;;;;;;;4.60;4.30;;;23.50;24.10;;;;;;20782;6826;117574;-74
2022/04/29 12:11:11;;;;;;;4.73;4.47;;;23.50;25.10;;;;;;20780;6826;118269;-74
2022/04/29 12:13:36;;;;;;;5.03;4.70;;;23.20;25.20;;;;;;20553;6826;277966;-74
2022/04/29 12:16:04;;;;;;;5.03;4.63;;;23.40;25.60;;;;;;20539;6826;310262;-75
2022/04/29 12:18:45;;;;;;;5.20;4.90;;;23.40;25.60;;;;;;20557;6826;311454;-74
2022/04/29 12:21:11;;;;;;;6.97;5.93;;;23.60;25.00;;;;;;20757;6826;117517;-74
2022/04/29 12:23:36;;;;;;;5.20;4.90;;;23.40;25.60;;;;;;20547;6824;419785;-74
2022/04/29 12:26:02;;;;;;;5.20;4.80;;;23.40;25.40;;;;;;20561;6825;342389;-76
2022/04/29 12:28:27;;;;;;;6.43;5.83;;;23.50;25.30;;;;;;20777;6826;117434;-74
2022/04/29 12:36:57;;;;;;;5.63;5.23;;;23.40;25.90;;;;;;20783;6826;117432;-75
2022/04/29 12:39:39;;;;;;;5.20;4.90;;;23.10;26.60;;;;;;20759;6826;123950;-74
2022/04/29 12:42:14;;;;;;;6.40;6.00;;;22.90;27.30;;;;;;20561;6826;307021;-74
2022/04/29 12:47:35;;;;;;;6.23;5.77;;;23.20;26.80;;;;;;20558;6826;281468;-75
2022/04/29 12:50:20;;;;;;;5.97;5.57;;;23.50;26.10;;;;;;20557;6826;335878;-76
2022/04/29 12:52:48;;;;;;;6.40;5.80;;;23.80;26.00;;;;;;20559;6826;306004;-76
2022/04/29 12:55:14;;;;;;;6.40;6.00;;;24.10;25.90;;;;;;20730;6826;117565;-75
2022/04/29 12:57:39;;;;;;;6.80;6.30;;;24.00;26.40;;;;;;20754;6826;117140;-73
2022/04/29 13:00:08;;;;;;;6.50;6.10;;;23.70;25.80;;;;;;20573;6826;336908;-75
2022/04/29 13:02:32;;;;;;;6.00;5.70;;;23.60;26.60;;;;;;20770;6826;119079;-73
2022/04/29 13:04:58;;;;;;;5.93;5.47;;;23.60;26.60;;;;;;20780;6826;117094;-73
2022/04/29 13:07:23;;;;;;;6.00;5.60;;;23.50;27.10;;;;;;20759;6826;118438;-74